createdAt,value
2022-07-31T00:00:06.276Z,99.90
2022-07-31T00:02:39.341Z,99.90
2022-07-31T00:05:06.586Z,99.90
2022-07-31T00:07:33.449Z,99.90
2022-07-31T00:10:00.345Z,99.90
2022-07-31T00:12:27.238Z,99.90
2022-07-31T00:14:54.303Z,99.90
2022-07-31T00:17:21.255Z,99.90
2022-07-31T00:19:48.124Z,99.90
2022-07-31T00:22:15.128Z,99.90
2022-07-31T00:24:42.086Z,99.90
2022-07-31T00:27:10.885Z,99.90
2022-07-31T00:29:38.623Z,99.90
2022-07-31T00:32:05.924Z,99.90
2022-07-31T00:34:32.850Z,99.90
2022-07-31T00:37:02.612Z,99.90
2022-07-31T00:39:31.059Z,99.90
2022-07-31T00:41:58.076Z,99.90
2022-07-31T00:44:25.267Z,99.90
2022-07-31T00:46:53.393Z,99.90
2022-07-31T00:49:20.650Z,99.90
2022-07-31T00:51:48.203Z,99.90
2022-07-31T00:54:15.457Z,99.90
2022-07-31T00:56:50.192Z,99.90
2022-07-31T00:59:17.858Z,99.90
2022-07-31T01:01:51.676Z,99.90
2022-07-31T01:04:19.675Z,99.90
2022-07-31T01:06:47.470Z,99.90
2022-07-31T01:09:14.779Z,99.90
2022-07-31T01:12:03.205Z,99.90
2022-07-31T01:14:35.873Z,99.90
2022-07-31T01:17:03.345Z,99.90
2022-07-31T01:19:42.520Z,99.90
2022-07-31T01:22:34.032Z,99.90
2022-07-31T01:25:10.099Z,99.90
2022-07-31T01:28:19.613Z,99.90
2022-07-31T01:31:25.449Z,99.90
2022-07-31T01:33:58.332Z,99.90
2022-07-31T01:36:26.038Z,99.90
2022-07-31T01:38:53.961Z,99.90
2022-07-31T01:41:23.430Z,99.90
2022-07-31T01:43:50.906Z,99.90
2022-07-31T01:46:18.385Z,99.90
2022-07-31T01:48:45.370Z,99.90
2022-07-31T01:51:12.713Z,99.90
2022-07-31T01:53:39.588Z,99.90
2022-07-31T01:56:07.298Z,99.90
2022-07-31T01:58:37.171Z,99.90
2022-07-31T02:01:11.347Z,99.90
2022-07-31T02:03:43.728Z,99.90
2022-07-31T02:06:15.183Z,99.90
2022-07-31T02:08:46.397Z,99.90
2022-07-31T02:11:18.893Z,99.90
2022-07-31T02:13:46.510Z,99.90
2022-07-31T02:16:14.136Z,99.90
2022-07-31T02:18:41.716Z,99.90
2022-07-31T02:21:19.870Z,99.90
2022-07-31T02:23:46.895Z,99.90
2022-07-31T02:26:14.792Z,99.90
2022-07-31T02:28:42.486Z,99.90
2022-07-31T02:31:11.455Z,99.90
2022-07-31T02:33:38.604Z,99.90
2022-07-31T02:36:06.177Z,99.90
2022-07-31T02:38:33.621Z,99.90
2022-07-31T02:41:03.839Z,99.90
2022-07-31T02:43:31.858Z,99.90
2022-07-31T02:46:02.037Z,99.90
2022-07-31T02:48:29.347Z,99.90
2022-07-31T02:51:01.045Z,99.90
2022-07-31T02:53:28.560Z,99.90
2022-07-31T02:56:01.314Z,99.90
2022-07-31T02:58:32.057Z,99.90
2022-07-31T03:01:06.064Z,99.90
2022-07-31T03:03:33.982Z,99.90
2022-07-31T03:06:01.124Z,99.90
2022-07-31T03:08:28.532Z,99.90
2022-07-31T03:10:58.810Z,99.90
2022-07-31T03:13:27.494Z,99.90
2022-07-31T03:15:55.185Z,99.90
2022-07-31T03:18:22.113Z,99.90
2022-07-31T03:20:52.057Z,99.90
2022-07-31T03:23:21.388Z,99.90
2022-07-31T03:25:53.793Z,99.90
2022-07-31T03:28:22.483Z,99.90
2022-07-31T03:30:55.112Z,99.90
2022-07-31T03:33:24.873Z,99.90
2022-07-31T03:35:53.240Z,99.90
2022-07-31T03:38:41.374Z,99.90
2022-07-31T03:41:08.179Z,99.90
2022-07-31T03:43:47.419Z,99.90
2022-07-31T03:46:18.999Z,99.90
2022-07-31T03:48:46.176Z,99.90
2022-07-31T03:51:13.469Z,99.90
2022-07-31T03:53:41.546Z,99.90
2022-07-31T03:56:10.309Z,99.90
2022-07-31T03:58:38.633Z,99.90
2022-07-31T04:01:07.302Z,99.90
2022-07-31T04:03:38.202Z,99.90
2022-07-31T04:06:29.712Z,99.90
2022-07-31T04:08:57.208Z,99.90
2022-07-31T04:11:24.152Z,99.90
2022-07-31T04:13:51.144Z,99.90
2022-07-31T04:16:18.090Z,99.90
2022-07-31T04:18:48.505Z,99.90
2022-07-31T04:21:18.134Z,99.90
2022-07-31T04:23:49.578Z,99.90
2022-07-31T04:26:26.093Z,99.90
2022-07-31T04:29:02.911Z,99.90
2022-07-31T04:31:30.110Z,99.90
2022-07-31T04:33:57.865Z,99.90
2022-07-31T04:36:30.686Z,99.90
2022-07-31T04:39:00.517Z,99.90
2022-07-31T04:41:28.062Z,99.90
2022-07-31T04:43:57.289Z,99.90
2022-07-31T04:46:24.586Z,99.90
2022-07-31T04:48:51.817Z,99.90
2022-07-31T04:51:23.066Z,99.90
2022-07-31T04:53:50.292Z,99.90
2022-07-31T04:56:36.023Z,99.90
2022-07-31T04:59:13.201Z,99.90
2022-07-31T05:01:43.306Z,99.90
2022-07-31T05:04:11.106Z,99.90
2022-07-31T05:06:48.741Z,99.90
2022-07-31T05:09:18.997Z,99.90
2022-07-31T05:11:48.234Z,99.90
2022-07-31T05:14:17.915Z,99.90
2022-07-31T05:16:45.043Z,99.90
2022-07-31T05:19:13.717Z,99.90
2022-07-31T05:22:05.526Z,99.90
2022-07-31T05:24:35.450Z,99.90
2022-07-31T05:27:06.428Z,99.90
2022-07-31T05:29:33.552Z,99.90
2022-07-31T05:32:10.078Z,99.90
2022-07-31T05:34:37.801Z,99.90
2022-07-31T05:37:05.120Z,99.90
2022-07-31T05:39:35.346Z,99.90
2022-07-31T05:42:20.674Z,99.90
2022-07-31T05:45:07.961Z,99.90
2022-07-31T05:47:40.134Z,99.90
2022-07-31T05:50:08.981Z,99.90
2022-07-31T05:52:35.821Z,99.90
2022-07-31T05:55:25.957Z,99.90
2022-07-31T05:58:16.389Z,99.90
2022-07-31T06:00:45.234Z,99.90
2022-07-31T06:03:12.581Z,99.90
2022-07-31T06:05:55.745Z,99.90
2022-07-31T06:08:23.526Z,99.90
2022-07-31T06:10:51.638Z,99.90
2022-07-31T06:13:19.415Z,99.90
2022-07-31T06:15:49.119Z,99.90
2022-07-31T06:18:16.581Z,99.90
2022-07-31T06:20:43.501Z,99.90
2022-07-31T06:23:22.463Z,99.90
2022-07-31T06:26:02.629Z,99.90
2022-07-31T06:28:44.757Z,99.90
2022-07-31T06:31:19.808Z,99.90
2022-07-31T06:33:48.456Z,99.90
2022-07-31T06:36:17.648Z,99.90
2022-07-31T06:39:10.904Z,99.90
2022-07-31T06:41:49.601Z,99.90
2022-07-31T06:44:28.797Z,99.90
2022-07-31T06:47:23.060Z,99.90
2022-07-31T06:49:49.947Z,99.90
2022-07-31T06:52:17.584Z,99.70
2022-07-31T06:54:45.437Z,98.10
2022-07-31T06:57:12.866Z,96.30
2022-07-31T06:59:40.796Z,93.90
2022-07-31T07:02:08.803Z,92.50
2022-07-31T07:05:04.784Z,90.00
2022-07-31T07:07:22.860Z,87.90
2022-07-31T07:09:51.237Z,85.10
2022-07-31T07:12:36.753Z,82.50
2022-07-31T07:15:04.392Z,80.50
2022-07-31T07:17:31.241Z,78.50
2022-07-31T07:20:00.205Z,77.60
2022-07-31T07:22:30.022Z,76.30
2022-07-31T07:25:01.282Z,74.70
2022-07-31T07:27:28.574Z,73.50
2022-07-31T07:29:55.896Z,72.10
2022-07-31T07:32:22.772Z,70.40
2022-07-31T07:34:49.798Z,69.00
2022-07-31T07:37:47.230Z,66.80
2022-07-31T07:40:15.165Z,65.50
2022-07-31T07:42:42.011Z,64.90
2022-07-31T07:45:10.163Z,62.30
2022-07-31T07:48:05.057Z,60.60
2022-07-31T07:50:27.037Z,60.00
2022-07-31T07:53:19.301Z,58.80
2022-07-31T07:56:08.683Z,58.50
2022-07-31T07:59:04.148Z,58.20
2022-07-31T08:01:51.284Z,58.00
2022-07-31T08:04:23.710Z,57.00
2022-07-31T08:06:50.618Z,55.90
2022-07-31T08:09:21.150Z,55.10
2022-07-31T08:12:07.062Z,54.90
2022-07-31T08:14:52.938Z,54.70
2022-07-31T08:17:38.041Z,53.40
2022-07-31T08:20:06.377Z,51.70
2022-07-31T08:22:33.461Z,50.80
2022-07-31T08:25:00.400Z,51.10
2022-07-31T08:27:39.756Z,50.50
2022-07-31T08:30:08.265Z,49.80
2022-07-31T08:32:35.281Z,49.10
2022-07-31T08:35:21.219Z,48.30
2022-07-31T08:37:59.100Z,48.00
2022-07-31T08:40:34.853Z,48.10
2022-07-31T08:43:19.681Z,47.60
2022-07-31T08:45:56.874Z,46.50
2022-07-31T08:48:27.551Z,45.30
2022-07-31T08:50:54.942Z,45.50
2022-07-31T08:53:42.376Z,45.50
2022-07-31T08:56:18.803Z,45.30
2022-07-31T08:58:45.704Z,45.00
2022-07-31T09:01:13.047Z,44.70
2022-07-31T09:03:40.159Z,45.20
2022-07-31T09:06:10.949Z,44.20
2022-07-31T09:08:37.978Z,44.50
2022-07-31T09:11:07.739Z,44.40
2022-07-31T09:14:02.838Z,44.00
2022-07-31T09:16:50.464Z,43.40
2022-07-31T09:19:53.400Z,43.00
2022-07-31T09:22:23.758Z,42.60
2022-07-31T09:24:50.932Z,42.40
2022-07-31T09:27:18.081Z,42.60
2022-07-31T09:29:46.872Z,42.30
2022-07-31T09:32:27.200Z,42.20
2022-07-31T09:35:10.821Z,41.60
2022-07-31T09:37:39.212Z,41.60
2022-07-31T09:40:35.572Z,41.10
2022-07-31T09:43:24.779Z,41.30
2022-07-31T09:46:01.038Z,41.70
2022-07-31T09:48:28.887Z,40.80
2022-07-31T09:51:14.208Z,40.50
2022-07-31T09:53:43.510Z,40.50
2022-07-31T09:56:34.038Z,40.70
2022-07-31T09:59:01.060Z,40.20
2022-07-31T10:01:28.557Z,39.40
2022-07-31T10:03:57.016Z,39.60
2022-07-31T10:06:23.884Z,39.90
2022-07-31T10:08:50.995Z,40.10
2022-07-31T10:11:26.610Z,40.50
2022-07-31T10:14:08.012Z,39.90
2022-07-31T10:16:36.333Z,40.10
2022-07-31T10:19:34.939Z,40.00
2022-07-31T10:22:20.602Z,40.50
2022-07-31T10:24:49.459Z,41.00
2022-07-31T10:27:17.418Z,40.80
2022-07-31T10:29:46.029Z,40.60
2022-07-31T10:32:13.817Z,40.80
2022-07-31T10:35:05.521Z,40.90
2022-07-31T10:38:26.769Z,40.50
2022-07-31T10:41:41.992Z,40.50
2022-07-31T10:44:15.998Z,40.70
2022-07-31T10:46:57.934Z,40.40
2022-07-31T10:49:57.312Z,40.30
2022-07-31T10:52:37.469Z,40.10
2022-07-31T10:55:25.310Z,39.90
2022-07-31T10:58:19.823Z,39.70
2022-07-31T11:01:08.274Z,39.50
2022-07-31T11:03:52.763Z,39.20
2022-07-31T11:06:40.266Z,38.80
2022-07-31T11:09:50.535Z,39.10
2022-07-31T11:13:04.350Z,38.90
2022-07-31T11:15:45.582Z,38.70
2022-07-31T11:18:34.566Z,38.20
2022-07-31T11:21:22.895Z,38.40
2022-07-31T11:24:02.432Z,37.80
2022-07-31T11:26:32.886Z,37.80
2022-07-31T11:30:01.612Z,37.90
2022-07-31T11:31:55.205Z,38.10
2022-07-31T11:34:22.056Z,38.40
2022-07-31T11:36:51.456Z,37.50
2022-07-31T11:39:28.314Z,37.50
2022-07-31T11:42:04.764Z,37.90
2022-07-31T11:44:34.352Z,38.20
2022-07-31T11:47:01.403Z,37.70
2022-07-31T11:49:48.174Z,37.10
2022-07-31T11:52:31.111Z,37.50
2022-07-31T11:55:09.457Z,37.30
2022-07-31T11:57:51.195Z,37.30
2022-07-31T12:00:27.328Z,37.20
2022-07-31T12:02:56.645Z,37.50
2022-07-31T12:05:38.011Z,37.50
2022-07-31T12:08:06.744Z,36.90
2022-07-31T12:10:33.629Z,36.90
2022-07-31T12:13:00.525Z,36.90
2022-07-31T12:15:27.414Z,36.50
2022-07-31T12:18:05.343Z,36.70
2022-07-31T12:20:36.717Z,36.10
2022-07-31T12:23:04.899Z,35.20
2022-07-31T12:25:45.970Z,35.40
2022-07-31T12:28:16.509Z,35.60
2022-07-31T12:30:43.722Z,34.80
2022-07-31T12:33:11.568Z,35.60
2022-07-31T12:35:56.024Z,36.20
2022-07-31T12:38:41.099Z,36.10
2022-07-31T12:41:12.031Z,36.40
2022-07-31T12:43:39.045Z,36.60
2022-07-31T12:46:17.187Z,37.00
2022-07-31T12:48:46.124Z,36.90
2022-07-31T12:51:13.440Z,36.60
2022-07-31T12:53:40.395Z,36.50
2022-07-31T12:56:11.734Z,36.70
2022-07-31T12:58:38.669Z,36.70
2022-07-31T13:01:05.811Z,36.10
2022-07-31T13:03:38.887Z,35.80
2022-07-31T13:06:14.145Z,36.10
2022-07-31T13:08:41.052Z,36.80
2022-07-31T13:11:07.948Z,37.20
2022-07-31T13:13:34.803Z,37.50
2022-07-31T13:16:01.835Z,37.70
2022-07-31T13:18:30.079Z,38.60
2022-07-31T13:20:56.984Z,38.60
2022-07-31T13:23:23.892Z,37.50
2022-07-31T13:25:50.765Z,38.00
2022-07-31T13:28:17.653Z,38.10
2022-07-31T13:30:44.546Z,38.10
2022-07-31T13:33:11.428Z,38.10
2022-07-31T13:35:38.300Z,38.30
2022-07-31T13:38:05.186Z,40.10
2022-07-31T13:40:50.654Z,39.80
2022-07-31T13:43:17.612Z,39.70
2022-07-31T13:45:44.630Z,40.00
2022-07-31T13:48:11.610Z,39.70
2022-07-31T13:50:39.926Z,39.10
2022-07-31T13:53:07.152Z,39.90
2022-07-31T13:55:34.081Z,39.70
2022-07-31T13:58:01.707Z,40.60
2022-07-31T14:00:29.525Z,41.20
2022-07-31T14:02:57.102Z,39.00
2022-07-31T14:05:26.499Z,38.20
2022-07-31T14:07:55.008Z,38.10
2022-07-31T14:10:22.441Z,39.00
2022-07-31T14:12:49.586Z,38.40
2022-07-31T14:15:19.062Z,37.80
2022-07-31T14:17:46.005Z,36.30
2022-07-31T14:20:13.285Z,35.60
2022-07-31T14:22:40.456Z,35.90
2022-07-31T14:25:07.625Z,35.80
2022-07-31T14:27:34.682Z,36.10
2022-07-31T14:30:01.821Z,36.80
2022-07-31T14:32:30.517Z,36.90
2022-07-31T14:34:57.342Z,36.10
2022-07-31T14:37:24.263Z,35.50
2022-07-31T14:39:51.321Z,35.10
2022-07-31T14:42:22.384Z,35.10
2022-07-31T14:44:53.463Z,34.70
2022-07-31T14:47:20.489Z,34.40
2022-07-31T14:50:06.852Z,33.80
2022-07-31T14:52:37.112Z,34.20
2022-07-31T14:55:04.164Z,34.80
2022-07-31T14:57:31.629Z,35.60
2022-07-31T14:59:58.820Z,35.70
2022-07-31T15:02:26.018Z,35.80
2022-07-31T15:04:56.545Z,36.10
2022-07-31T15:07:45.901Z,36.80
2022-07-31T15:10:10.805Z,37.20
2022-07-31T15:12:37.827Z,36.00
2022-07-31T15:15:05.581Z,36.50
2022-07-31T15:17:32.487Z,36.50
2022-07-31T15:19:59.402Z,34.40
2022-07-31T15:22:26.277Z,32.80
2022-07-31T15:24:53.165Z,31.30
2022-07-31T15:27:24.227Z,31.10
2022-07-31T15:30:05.994Z,31.20
2022-07-31T15:32:35.864Z,30.10
2022-07-31T15:35:03.323Z,29.90
2022-07-31T15:37:30.401Z,29.90
2022-07-31T15:40:02.292Z,29.90
2022-07-31T15:42:33.842Z,29.70
2022-07-31T15:45:00.879Z,29.20
2022-07-31T15:47:27.742Z,29.30
2022-07-31T15:49:54.697Z,29.40
2022-07-31T15:52:21.635Z,29.40
2022-07-31T15:54:51.549Z,28.90
2022-07-31T15:57:20.956Z,28.70
2022-07-31T15:59:48.594Z,28.30
2022-07-31T16:02:15.544Z,28.40
2022-07-31T16:04:53.345Z,28.60
2022-07-31T16:08:32.494Z,28.70
2022-07-31T16:10:17.726Z,28.30
2022-07-31T16:12:45.995Z,28.60
2022-07-31T16:15:13.231Z,28.40
2022-07-31T16:17:40.649Z,29.10
2022-07-31T16:20:09.433Z,29.70
2022-07-31T16:22:39.849Z,30.30
2022-07-31T16:25:08.330Z,29.70
2022-07-31T16:27:35.184Z,30.00
2022-07-31T16:30:03.058Z,29.90
2022-07-31T16:32:30.389Z,30.00
2022-07-31T16:35:00.810Z,31.00
2022-07-31T16:37:51.623Z,31.60
2022-07-31T16:40:30.104Z,32.30
2022-07-31T16:43:03.641Z,31.60
2022-07-31T16:45:49.962Z,31.80
2022-07-31T16:48:17.011Z,31.70
2022-07-31T16:50:43.869Z,30.90
2022-07-31T16:54:10.780Z,29.90
2022-07-31T16:56:00.845Z,30.80
2022-07-31T16:58:28.839Z,29.70
2022-07-31T17:00:55.848Z,29.10
2022-07-31T17:03:58.984Z,28.80
2022-07-31T17:06:10.431Z,28.70
2022-07-31T17:08:38.380Z,29.30
2022-07-31T17:11:05.555Z,29.30
2022-07-31T17:13:32.671Z,30.40
2022-07-31T17:15:59.564Z,30.00
2022-07-31T17:18:26.555Z,30.00
2022-07-31T17:20:56.098Z,31.00
2022-07-31T17:23:27.726Z,31.60
2022-07-31T17:26:21.182Z,34.00
2022-07-31T17:28:50.638Z,34.00
2022-07-31T17:31:18.660Z,34.50
2022-07-31T17:33:58.294Z,35.00
2022-07-31T17:36:28.502Z,35.10
2022-07-31T17:38:56.171Z,36.00
2022-07-31T17:41:25.098Z,37.20
2022-07-31T17:43:55.486Z,37.70
2022-07-31T17:46:34.430Z,36.70
2022-07-31T17:49:11.657Z,36.80
2022-07-31T17:51:58.648Z,37.00
2022-07-31T17:54:31.399Z,37.10
2022-07-31T17:57:00.963Z,37.30
2022-07-31T17:59:28.124Z,37.40
2022-07-31T18:02:01.049Z,37.50
2022-07-31T18:04:28.092Z,37.50
2022-07-31T18:06:55.156Z,37.80
2022-07-31T18:09:23.563Z,38.50
2022-07-31T18:11:51.352Z,38.70
2022-07-31T18:14:18.432Z,38.60
2022-07-31T18:16:45.873Z,40.10
2022-07-31T18:19:12.995Z,41.50
2022-07-31T18:21:39.887Z,41.40
2022-07-31T18:24:07.120Z,41.70
2022-07-31T18:26:35.396Z,43.10
2022-07-31T18:29:02.293Z,42.90
2022-07-31T18:31:34.446Z,43.10
2022-07-31T18:34:05.777Z,42.90
2022-07-31T18:36:35.742Z,43.70
2022-07-31T18:39:02.791Z,45.60
2022-07-31T18:41:29.773Z,46.70
2022-07-31T18:43:56.885Z,47.50
2022-07-31T18:46:24.768Z,48.90
2022-07-31T18:48:56.220Z,50.20
2022-07-31T18:51:24.609Z,50.20
2022-07-31T18:53:51.755Z,50.90
2022-07-31T18:56:22.066Z,51.30
2022-07-31T18:58:48.942Z,52.00
2022-07-31T19:01:15.879Z,52.80
2022-07-31T19:03:42.791Z,53.00
2022-07-31T19:06:09.620Z,53.60
2022-07-31T19:08:36.696Z,54.50
2022-07-31T19:11:03.542Z,55.00
2022-07-31T19:13:30.474Z,55.30
2022-07-31T19:15:57.284Z,56.00
2022-07-31T19:18:28.150Z,56.40
2022-07-31T19:21:17.646Z,57.00
2022-07-31T19:23:43.864Z,57.20
2022-07-31T19:26:10.799Z,57.70
2022-07-31T19:28:39.611Z,58.10
2022-07-31T19:31:06.676Z,58.80
2022-07-31T19:33:33.646Z,59.10
2022-07-31T19:36:02.887Z,59.80
2022-07-31T19:38:30.897Z,60.40
2022-07-31T19:40:58.607Z,60.60
2022-07-31T19:43:25.601Z,61.80
2022-07-31T19:46:09.362Z,62.20
2022-07-31T19:48:40.577Z,62.90
2022-07-31T19:51:08.383Z,63.60
2022-07-31T19:53:35.322Z,64.00
2022-07-31T19:56:05.621Z,64.90
2022-07-31T19:58:34.334Z,64.60
2022-07-31T20:01:01.311Z,65.20
2022-07-31T20:03:28.300Z,65.80
2022-07-31T20:05:56.402Z,65.60
2022-07-31T20:08:23.679Z,66.40
2022-07-31T20:10:50.593Z,66.50
2022-07-31T20:13:21.479Z,67.90
2022-07-31T20:15:53.135Z,68.70
2022-07-31T20:18:27.354Z,69.10
2022-07-31T20:21:00.805Z,70.30
2022-07-31T20:23:27.861Z,70.70
2022-07-31T20:25:54.894Z,73.00
2022-07-31T20:28:21.840Z,72.00
2022-07-31T20:30:48.713Z,72.90
2022-07-31T20:33:15.645Z,72.70
2022-07-31T20:35:47.666Z,73.70
2022-07-31T20:38:17.606Z,74.30
2022-07-31T20:40:52.830Z,75.10
2022-07-31T20:43:20.227Z,75.60
2022-07-31T20:45:47.569Z,76.50
2022-07-31T20:48:14.875Z,73.30
2022-07-31T20:50:41.799Z,73.50
2022-07-31T20:53:09.897Z,74.50
2022-07-31T20:55:36.728Z,76.00
2022-07-31T20:58:03.742Z,75.90
2022-07-31T21:00:32.566Z,76.30
2022-07-31T21:02:59.417Z,77.30
2022-07-31T21:05:29.384Z,78.30
2022-07-31T21:07:59.194Z,78.80
2022-07-31T21:10:29.582Z,79.90
2022-07-31T21:12:56.926Z,79.10
2022-07-31T21:15:40.872Z,80.40
2022-07-31T21:18:17.140Z,80.00
2022-07-31T21:20:52.044Z,80.40
2022-07-31T21:23:21.393Z,81.90
2022-07-31T21:25:48.547Z,82.20
2022-07-31T21:28:15.721Z,82.60
2022-07-31T21:30:42.726Z,83.60
2022-07-31T21:33:09.626Z,85.50
2022-07-31T21:35:39.788Z,87.40
2022-07-31T21:38:10.477Z,87.50
2022-07-31T21:40:39.087Z,88.60
2022-07-31T21:43:06.379Z,88.60
2022-07-31T21:45:50.434Z,90.00
2022-07-31T21:48:21.009Z,90.20
2022-07-31T21:50:48.076Z,90.20
2022-07-31T21:53:14.942Z,89.50
2022-07-31T21:55:41.934Z,90.20
2022-07-31T21:58:09.055Z,91.00
2022-07-31T22:00:36.010Z,90.30
2022-07-31T22:03:03.100Z,90.90
2022-07-31T22:05:48.967Z,91.00
2022-07-31T22:08:15.911Z,91.60
2022-07-31T22:10:42.766Z,91.50
2022-07-31T22:13:09.703Z,91.70
2022-07-31T22:15:50.416Z,92.10
2022-07-31T22:18:26.551Z,92.40
2022-07-31T22:20:53.952Z,92.60
2022-07-31T22:23:20.928Z,93.20
2022-07-31T22:25:49.027Z,93.60
2022-07-31T22:28:17.603Z,93.70
2022-07-31T22:30:44.731Z,94.00
2022-07-31T22:33:11.836Z,94.30
2022-07-31T22:35:40.814Z,94.40
2022-07-31T22:38:08.432Z,94.60
2022-07-31T22:40:35.519Z,95.00
2022-07-31T22:43:03.345Z,95.40
2022-07-31T22:45:30.561Z,95.50
2022-07-31T22:47:57.549Z,95.70
2022-07-31T22:50:24.441Z,95.70
2022-07-31T22:52:51.299Z,96.40
2022-07-31T22:55:18.173Z,96.30
2022-07-31T22:57:45.092Z,96.70
2022-07-31T23:00:15.490Z,96.80
2022-07-31T23:02:42.644Z,97.20
2022-07-31T23:05:09.954Z,98.20
2022-07-31T23:07:37.127Z,98.00
2022-07-31T23:10:05.923Z,98.50
2022-07-31T23:12:32.759Z,98.10
2022-07-31T23:14:59.634Z,98.50
2022-07-31T23:17:26.477Z,99.20
2022-07-31T23:19:54.085Z,99.20
2022-07-31T23:22:33.418Z,99.90
2022-07-31T23:25:07.629Z,99.90
2022-07-31T23:27:34.642Z,99.20
2022-07-31T23:30:01.512Z,99.90
2022-07-31T23:32:28.442Z,99.90
2022-07-31T23:34:55.390Z,99.90
2022-07-31T23:37:22.199Z,99.90
2022-07-31T23:39:49.028Z,99.90
2022-07-31T23:42:34.508Z,99.90
2022-07-31T23:45:01.350Z,99.90
2022-07-31T23:47:44.617Z,99.90
2022-07-31T23:50:13.291Z,99.90
2022-07-31T23:52:40.131Z,99.90
2022-07-31T23:55:07.225Z,99.90
2022-07-31T23:57:35.945Z,99.90
